Time;durP1;ratioP1;P1;durP2;ratioP2;P2;SDS_P1;SDS_P2;PMS_P1;PMS_P2;Temp;Humidity;BMP_temperature;BMP_pressure;BME280_temperature;BME280_humidity;BME280_pressure;Samples;Min_cycle;Max_cycle;Signal;HPM_P1;HPM_P2
2022/02/17 00:02:21;;;;;;;;;;;3.00;99.90;;;;;;4948052;29;19981;-77
2022/02/17 00:04:46;;;;;;;;;;;3.00;99.90;;;;;;4943494;29;19977;-77
2022/02/17 00:07:12;;;;;;;;;;;3.10;99.90;;;;;;4944013;29;19921;-77
2022/02/17 00:09:37;;;;;;;;;;;3.20;99.90;;;;;;4960862;29;19910;-77
2022/02/17 00:12:03;;;;;;;;;;;3.30;99.90;;;;;;4960417;29;20410;-77
2022/02/17 00:14:28;;;;;;;;;;;3.30;99.90;;;;;;4959766;29;19919;-78
2022/02/17 00:16:54;;;;;;;;;;;3.40;99.90;;;;;;4957396;29;19961;-77
2022/02/17 00:19:20;;;;;;;;;;;3.40;99.90;;;;;;4939940;29;19965;-77
2022/02/17 00:21:47;;;;;;;;;;;3.50;99.90;;;;;;4940123;29;20431;-77
2022/02/17 00:24:14;;;;;;;;;;;3.60;99.90;;;;;;4957893;29;19980;-80
2022/02/17 00:26:40;;;;;;;;;;;3.70;99.90;;;;;;4940684;29;19917;-79
2022/02/17 00:29:05;;;;;;;;;;;3.70;99.90;;;;;;4940573;29;19918;-77
2022/02/17 00:31:31;;;;;;;;;;;3.70;99.90;;;;;;4940213;29;19914;-77
2022/02/17 00:33:56;;;;;;;;;;;3.70;99.90;;;;;;4957585;29;20288;-77
2022/02/17 00:36:22;;;;;;;;;;;3.70;99.90;;;;;;4941057;29;19906;-77
2022/02/17 00:38:47;;;;;;;;;;;3.70;99.90;;;;;;4941069;29;19918;-76
2022/02/17 00:41:13;;;;;;;;;;;3.70;99.90;;;;;;4958155;29;19913;-77
2022/02/17 00:43:38;;;;;;;;;;;3.70;99.90;;;;;;4942045;29;20268;-77
2022/02/17 00:46:04;;;;;;;;;;;3.70;99.90;;;;;;4959438;29;20379;-78
2022/02/17 00:48:29;;;;;;;;;;;3.70;99.90;;;;;;4941730;29;20299;-77
2022/02/17 00:50:55;;;;;;;;;;;3.80;99.90;;;;;;4962158;29;20431;-78
2022/02/17 00:53:20;;;;;;;;;;;3.80;99.90;;;;;;4949219;29;19980;-79
2022/02/17 00:55:46;;;;;;;;;;;3.80;99.90;;;;;;4945159;29;20339;-78
2022/02/17 00:58:11;;;;;;;;;;;4.00;99.90;;;;;;4956160;29;19914;-78
2022/02/17 01:00:37;;;;;;;;;;;3.90;99.90;;;;;;4961140;29;20302;-80
2022/02/17 01:03:03;;;;;;;;;;;3.90;99.90;;;;;;4977680;29;19890;-80
2022/02/17 01:05:28;;;;;;;;;;;3.90;99.90;;;;;;4961021;29;20367;-78
2022/02/17 01:07:54;;;;;;;;;;;4.00;99.90;;;;;;4978544;29;19914;-79
2022/02/17 01:10:20;;;;;;;;;;;4.10;99.90;;;;;;4977866;29;19907;-79
2022/02/17 01:12:45;;;;;;;;;;;4.10;99.90;;;;;;4960268;29;19957;-79
2022/02/17 01:15:11;;;;;;;;;;;4.00;99.90;;;;;;4961660;29;19913;-79
2022/02/17 01:17:36;;;;;;;;;;;4.20;99.90;;;;;;4979056;29;19986;-79
2022/02/17 01:20:03;;;;;;;;;;;4.20;99.90;;;;;;4954155;29;19953;-78
2022/02/17 01:22:28;;;;;;;;;;;4.20;99.90;;;;;;4968246;29;20429;-79
2022/02/17 01:24:54;;;;;;;;;;;4.40;99.90;;;;;;4968655;29;19907;-78
2022/02/17 01:27:19;;;;;;;;;;;4.40;99.90;;;;;;4950239;29;19965;-79
2022/02/17 01:29:45;;;;;;;;;;;4.40;99.90;;;;;;4953045;29;20271;-78
2022/02/17 01:32:10;;;;;;;;;;;4.50;99.90;;;;;;4952682;29;19970;-78
2022/02/17 01:34:36;;;;;;;;;;;4.50;99.90;;;;;;4960286;29;19957;-78
2022/02/17 01:37:01;;;;;;;;;;;4.50;99.90;;;;;;4960628;29;19911;-79
2022/02/17 01:39:27;;;;;;;;;;;4.40;99.90;;;;;;4947566;29;20323;-79
2022/02/17 01:41:52;;;;;;;;;;;4.40;99.90;;;;;;4949080;29;19910;-78
2022/02/17 01:44:18;;;;;;;;;;;4.50;99.90;;;;;;4947612;29;19906;-78
2022/02/17 01:46:43;;;;;;;;;;;4.50;99.90;;;;;;4964599;29;19930;-79
2022/02/17 01:49:10;;;;;;;;;;;4.50;99.90;;;;;;4964215;29;19922;-79
2022/02/17 01:51:36;;;;;;;;;;;4.50;99.90;;;;;;4964406;29;19906;-79
2022/02/17 01:54:03;;;;;;;;;;;4.50;99.90;;;;;;4964864;29;20465;-79
2022/02/17 01:56:29;;;;;;;;;;;4.60;99.90;;;;;;4966019;29;19946;-80
2022/02/17 01:58:55;;;;;;;;;;;4.60;99.90;;;;;;4964656;28;19985;-79
2022/02/17 02:01:24;;;;;;;;;;;4.70;99.90;;;;;;4946350;29;19934;-79
2022/02/17 02:03:50;;;;;;;;;;;4.70;99.90;;;;;;4948121;29;19906;-79
2022/02/17 02:06:15;;;;;;;;;;;4.80;99.90;;;;;;4946946;29;19910;-79
2022/02/17 02:08:42;;;;;;;;;;;4.80;99.90;;;;;;4966290;29;19919;-78
2022/02/17 02:11:07;;;;;;;;;;;4.80;99.90;;;;;;4966203;29;19906;-79
2022/02/17 02:13:34;;;;;;;;;;;4.80;99.90;;;;;;4960009;29;19964;-79
2022/02/17 02:16:00;;;;;;;;;;;4.90;99.90;;;;;;4968558;28;19921;-79
2022/02/17 02:18:26;;;;;;;;;;;4.90;99.90;;;;;;4971873;29;20311;-79
2022/02/17 02:20:56;;;;;;;;;;;5.00;99.90;;;;;;4964949;29;19911;-78
2022/02/17 02:23:22;;;;;;;;;;;5.00;99.90;;;;;;4958894;29;19997;-79
2022/02/17 02:25:48;;;;;;;;;;;5.00;99.90;;;;;;4944149;29;19954;-79
2022/02/17 02:28:18;;;;;;;;;;;5.00;99.90;;;;;;4961366;29;19938;-79
2022/02/17 02:30:43;;;;;;;;;;;5.00;99.90;;;;;;4963575;29;19907;-79
2022/02/17 02:33:09;;;;;;;;;;;5.00;99.90;;;;;;4963485;29;19961;-79
2022/02/17 02:35:35;;;;;;;;;;;5.00;99.90;;;;;;4940525;29;19910;-78
2022/02/17 02:38:00;;;;;;;;;;;5.30;99.90;;;;;;4966082;29;19914;-79
2022/02/17 02:40:26;;;;;;;;;;;5.30;99.90;;;;;;4948979;29;19978;-80
2022/02/17 02:42:51;;;;;;;;;;;5.20;99.90;;;;;;4949173;29;20360;-79
2022/02/17 02:45:17;;;;;;;;;;;5.10;99.90;;;;;;4966577;29;19910;-79
2022/02/17 02:47:42;;;;;;;;;;;5.10;99.90;;;;;;4947157;29;19918;-78
2022/02/17 02:50:08;;;;;;;;;;;5.20;99.90;;;;;;4965305;29;19913;-79
2022/02/17 02:52:35;;;;;;;;;;;5.20;99.90;;;;;;4945737;29;19965;-78
2022/02/17 02:55:00;;;;;;;;;;;5.20;99.90;;;;;;4947780;29;19957;-79
2022/02/17 02:57:26;;;;;;;;;;;5.20;99.90;;;;;;4945665;29;19929;-79
2022/02/17 02:59:51;;;;;;;;;;;5.20;99.90;;;;;;4957909;28;20442;-78
2022/02/17 03:02:17;;;;;;;;;;;5.20;99.90;;;;;;4957653;29;19907;-79
2022/02/17 03:04:42;;;;;;;;;;;5.20;99.90;;;;;;4963166;29;20386;-79
2022/02/17 03:07:08;;;;;;;;;;;5.30;99.90;;;;;;4944832;29;19914;-79
2022/02/17 03:09:33;;;;;;;;;;;5.30;99.90;;;;;;4967752;29;19918;-79
2022/02/17 03:11:59;;;;;;;;;;;5.30;99.90;;;;;;4966089;29;19906;-79
2022/02/17 03:14:24;;;;;;;;;;;5.30;99.90;;;;;;4944918;29;19906;-78
2022/02/17 03:16:50;;;;;;;;;;;5.30;99.90;;;;;;4965984;28;19906;-79
2022/02/17 03:19:15;;;;;;;;;;;5.30;99.90;;;;;;4969025;29;20039;-79
2022/02/17 03:21:41;;;;;;;;;;;5.50;99.90;;;;;;4966436;29;19974;-78
2022/02/17 03:24:06;;;;;;;;;;;5.60;99.90;;;;;;4949453;29;19915;-79
2022/02/17 03:26:32;;;;;;;;;;;5.50;99.90;;;;;;4968203;29;20009;-78
2022/02/17 03:28:57;;;;;;;;;;;5.50;99.90;;;;;;4950979;29;19969;-79
2022/02/17 03:31:23;;;;;;;;;;;5.50;99.90;;;;;;4952799;29;19906;-79
2022/02/17 03:33:48;;;;;;;;;;;5.50;99.90;;;;;;4961284;29;19906;-80
2022/02/17 03:36:14;;;;;;;;;;;5.50;99.90;;;;;;4957373;29;19929;-79
2022/02/17 03:38:39;;;;;;;;;;;5.50;99.90;;;;;;4969017;29;19916;-78
2022/02/17 03:41:05;;;;;;;;;;;5.50;99.90;;;;;;4968312;29;19932;-79
2022/02/17 03:43:30;;;;;;;;;;;5.50;99.90;;;;;;4967502;29;19910;-79
2022/02/17 03:45:56;;;;;;;;;;;5.50;99.90;;;;;;4967757;29;20012;-79
2022/02/17 03:48:21;;;;;;;;;;;5.50;99.90;;;;;;4950601;29;19918;-79
2022/02/17 03:50:47;;;;;;;;;;;5.50;99.90;;;;;;4950114;29;20331;-78
2022/02/17 03:53:13;;;;;;;;;;;5.50;99.90;;;;;;4967849;29;20357;-77
2022/02/17 03:55:38;;;;;;;;;;;5.40;99.90;;;;;;4966575;29;19912;-79
2022/02/17 03:58:04;;;;;;;;;;;5.30;99.90;;;;;;4967872;29;20395;-79
2022/02/17 04:00:29;;;;;;;;;;;5.40;99.90;;;;;;4967662;28;20350;-79
2022/02/17 04:02:55;;;;;;;;;;;5.40;99.90;;;;;;4966265;29;19913;-78
2022/02/17 04:05:20;;;;;;;;;;;5.30;99.90;;;;;;4967138;29;20044;-78
2022/02/17 04:07:46;;;;;;;;;;;5.30;99.90;;;;;;4965932;29;19945;-78
2022/02/17 04:10:11;;;;;;;;;;;5.30;99.90;;;;;;4948848;29;20414;-80
2022/02/17 04:12:37;;;;;;;;;;;5.30;99.90;;;;;;4949155;29;19914;-79
2022/02/17 04:15:02;;;;;;;;;;;5.30;99.90;;;;;;4965476;29;19917;-79
2022/02/17 04:17:28;;;;;;;;;;;5.40;99.90;;;;;;4965586;29;19932;-78
2022/02/17 04:19:54;;;;;;;;;;;5.40;99.90;;;;;;4952055;29;20484;-79
2022/02/17 04:22:19;;;;;;;;;;;5.40;99.90;;;;;;4949152;29;19922;-79
2022/02/17 04:24:45;;;;;;;;;;;5.40;99.90;;;;;;4967758;29;19910;-79
2022/02/17 04:27:10;;;;;;;;;;;5.30;99.90;;;;;;4949328;29;20349;-79
2022/02/17 04:29:36;;;;;;;;;;;5.30;99.90;;;;;;4967335;28;20490;-79
2022/02/17 04:32:02;;;;;;;;;;;5.30;99.90;;;;;;4951426;29;20376;-79
2022/02/17 04:34:27;;;;;;;;;;;5.30;99.90;;;;;;4951978;29;19906;-79
2022/02/17 04:36:53;;;;;;;;;;;5.30;99.90;;;;;;4967108;29;19907;-78
2022/02/17 04:39:18;;;;;;;;;;;5.30;99.90;;;;;;4968883;29;19912;-79
2022/02/17 04:44:28;;;;;;;;;;;5.30;99.90;;;;;;4969119;29;19953;-79
2022/02/17 04:46:54;;;;;;;;;;;5.40;99.90;;;;;;4968571;29;19910;-78
2022/02/17 04:49:19;;;;;;;;;;;5.40;99.90;;;;;;4968246;29;20016;-78
2022/02/17 04:51:45;;;;;;;;;;;5.40;99.90;;;;;;4949802;29;19910;-78
2022/02/17 04:54:10;;;;;;;;;;;5.40;99.90;;;;;;4952976;29;19922;-79
2022/02/17 04:56:36;;;;;;;;;;;5.40;99.90;;;;;;4968678;29;19946;-79
2022/02/17 04:59:01;;;;;;;;;;;5.40;99.90;;;;;;4949197;29;19907;-78
2022/02/17 05:01:27;;;;;;;;;;;5.40;99.90;;;;;;4968564;29;19945;-80
2022/02/17 05:03:52;;;;;;;;;;;5.30;99.90;;;;;;4967033;29;19914;-78
2022/02/17 05:06:18;;;;;;;;;;;5.40;99.90;;;;;;4966848;29;19957;-78
2022/02/17 05:08:43;;;;;;;;;;;5.30;99.90;;;;;;4949802;29;20012;-79
2022/02/17 05:11:09;;;;;;;;;;;5.30;99.90;;;;;;4947087;29;19910;-80
2022/02/17 05:13:34;;;;;;;;;;;5.40;99.90;;;;;;4943013;29;19910;-79
2022/02/17 05:16:00;;;;;;;;;;;5.30;99.90;;;;;;4942515;29;20372;-79
2022/02/17 05:18:25;;;;;;;;;;;5.20;99.90;;;;;;4944592;29;19946;-78
2022/02/17 05:20:51;;;;;;;;;;;5.30;99.90;;;;;;4944017;29;19918;-78
2022/02/17 05:23:16;;;;;;;;;;;5.30;99.90;;;;;;4944129;29;19937;-79
2022/02/17 05:25:44;;;;;;;;;;;5.20;99.90;;;;;;4944439;29;19915;-79
2022/02/17 05:28:10;;;;;;;;;;;5.20;99.90;;;;;;4944827;29;19919;-79
2022/02/17 05:30:42;;;;;;;;;;;5.20;99.90;;;;;;4943901;29;19933;-79
2022/02/17 05:33:08;;;;;;;;;;;5.20;99.90;;;;;;4944594;29;19950;-78
2022/02/17 05:35:34;;;;;;;;;;;5.20;99.90;;;;;;4961554;29;19911;-80
2022/02/17 05:37:59;;;;;;;;;;;5.20;99.90;;;;;;4944647;29;19989;-80
2022/02/17 05:40:25;;;;;;;;;;;5.20;99.90;;;;;;4960931;28;19926;-78
2022/02/17 05:42:50;;;;;;;;;;;5.20;99.90;;;;;;4944024;29;19918;-79
2022/02/17 05:45:16;;;;;;;;;;;5.10;99.90;;;;;;4960969;29;19914;-79
2022/02/17 05:47:41;;;;;;;;;;;5.10;99.90;;;;;;4960033;29;19914;-78
2022/02/17 05:50:08;;;;;;;;;;;5.10;99.90;;;;;;4960883;29;19956;-79
2022/02/17 05:52:33;;;;;;;;;;;5.10;99.90;;;;;;4960448;29;19910;-79
2022/02/17 05:54:59;;;;;;;;;;;5.10;99.90;;;;;;4960830;29;19938;-78
2022/02/17 05:57:24;;;;;;;;;;;5.10;99.90;;;;;;4959486;29;20427;-78
2022/02/17 05:59:50;;;;;;;;;;;5.10;99.90;;;;;;4943268;29;19914;-78
2022/02/17 06:02:15;;;;;;;;;;;5.10;99.90;;;;;;4943333;29;19987;-77
2022/02/17 06:04:43;;;;;;;;;;;5.10;99.90;;;;;;4960914;29;19912;-79
2022/02/17 06:07:13;;;;;;;;;;;5.10;99.90;;;;;;4961168;29;19950;-78
2022/02/17 06:09:39;;;;;;;;;;;5.20;99.90;;;;;;4949453;29;19929;-79
2022/02/17 06:12:05;;;;;;;;;;;5.20;99.90;;;;;;4953687;29;19946;-79
2022/02/17 06:14:31;;;;;;;;;;;5.20;99.90;;;;;;4947662;29;19913;-79
2022/02/17 06:16:56;;;;;;;;;;;5.20;99.90;;;;;;4942850;29;20379;-79
2022/02/17 06:19:22;;;;;;;;;;;5.20;99.90;;;;;;4958522;29;19997;-78
2022/02/17 06:21:47;;;;;;;;;;;5.20;99.90;;;;;;4941622;29;19992;-79
2022/02/17 06:24:13;;;;;;;;;;;5.30;99.90;;;;;;4941695;29;19922;-79
2022/02/17 06:26:38;;;;;;;;;;;5.30;99.90;;;;;;4942397;29;19911;-79
2022/02/17 06:29:04;;;;;;;;;;;5.20;99.90;;;;;;4958928;29;20328;-79
2022/02/17 06:31:31;;;;;;;;;;;5.30;99.90;;;;;;4942011;29;20418;-78
2022/02/17 06:33:57;;;;;;;;;;;5.30;99.90;;;;;;4942082;29;19968;-78
2022/02/17 06:36:23;;;;;;;;;;;5.20;99.90;;;;;;4959302;29;19910;-79
2022/02/17 06:38:48;;;;;;;;;;;5.20;99.90;;;;;;4960026;29;19912;-79
2022/02/17 06:41:18;;;;;;;;;;;5.20;99.90;;;;;;4959161;29;19956;-77
2022/02/17 06:43:43;;;;;;;;;;;5.30;99.90;;;;;;4956987;29;19918;-79
2022/02/17 06:46:09;;;;;;;;;;;5.30;99.90;;;;;;4959588;29;19914;-78
2022/02/17 06:48:34;;;;;;;;;;;5.40;99.90;;;;;;4942377;29;19918;-78
2022/02/17 06:51:00;;;;;;;;;;;5.40;99.90;;;;;;4958992;29;19941;-79
2022/02/17 06:53:25;;;;;;;;;;;5.30;99.90;;;;;;4960405;29;19930;-79
2022/02/17 06:55:51;;;;;;;;;;;5.50;99.90;;;;;;4942509;29;19906;-78
2022/02/17 06:58:17;;;;;;;;;;;5.40;99.90;;;;;;4942363;29;19918;-79
2022/02/17 07:00:42;;;;;;;;;;;5.40;99.90;;;;;;4960073;28;20390;-79
2022/02/17 07:03:08;;;;;;;;;;;5.50;99.90;;;;;;4960870;29;19934;-78
2022/02/17 07:05:34;;;;;;;;;;;5.50;99.90;;;;;;4959444;29;19906;-78
2022/02/17 07:07:59;;;;;;;;;;;5.50;99.90;;;;;;4960855;29;19981;-79
2022/02/17 07:13:10;;;;;;;;;;;5.50;99.90;;;;;;4962059;29;19912;-78
2022/02/17 07:15:35;;;;;;;;;;;5.50;99.90;;;;;;4963014;29;19945;-79
2022/02/17 07:18:05;;;;;;;;;;;5.50;99.90;;;;;;4962612;29;19906;-79
2022/02/17 07:20:31;;;;;;;;;;;5.50;99.90;;;;;;4944834;29;19906;-79
2022/02/17 07:22:58;;;;;;;;;;;5.50;99.90;;;;;;4960305;29;19927;-79
2022/02/17 07:25:24;;;;;;;;;;;5.60;99.90;;;;;;4961881;29;20017;-78
2022/02/17 07:27:49;;;;;;;;;;;5.60;99.90;;;;;;4961637;29;19915;-78
2022/02/17 07:30:15;;;;;;;;;;;5.60;99.90;;;;;;4944565;29;19910;-79
2022/02/17 07:32:41;;;;;;;;;;;5.60;99.90;;;;;;4961018;29;19913;-78
2022/02/17 07:35:07;;;;;;;;;;;5.60;99.90;;;;;;4961659;29;20005;-79
2022/02/17 07:37:33;;;;;;;;;;;5.70;99.90;;;;;;4961658;29;19913;-79
2022/02/17 07:39:59;;;;;;;;;;;5.70;99.90;;;;;;4958862;29;19906;-79
2022/02/17 07:42:24;;;;;;;;;;;5.70;99.90;;;;;;4944020;29;19910;-79
2022/02/17 07:44:52;;;;;;;;;;;5.80;99.90;;;;;;4943473;29;19914;-79
2022/02/17 07:47:18;;;;;;;;;;;5.90;99.90;;;;;;4942591;29;19945;-79
2022/02/17 07:49:43;;;;;;;;;;;5.80;99.90;;;;;;4960489;29;19930;-79
2022/02/17 07:52:09;;;;;;;;;;;5.90;99.90;;;;;;4960341;29;19934;-78
2022/02/17 07:54:34;;;;;;;;;;;5.90;99.90;;;;;;4960016;29;19907;-79
2022/02/17 07:57:02;;;;;;;;;;;6.00;99.90;;;;;;4961727;29;19911;-78
2022/02/17 07:59:28;;;;;;;;;;;6.00;99.90;;;;;;4945603;29;19911;-79
2022/02/17 08:01:53;;;;;;;;;;;6.10;99.90;;;;;;4944144;29;19910;-79
2022/02/17 08:04:19;;;;;;;;;;;6.10;99.90;;;;;;4962190;28;19950;-79
2022/02/17 08:06:45;;;;;;;;;;;6.20;99.90;;;;;;4947440;29;20013;-79
2022/02/17 08:09:11;;;;;;;;;;;6.20;99.90;;;;;;4946941;29;19918;-79
2022/02/17 08:11:36;;;;;;;;;;;6.20;99.90;;;;;;4946983;29;19911;-78
2022/02/17 08:14:02;;;;;;;;;;;6.30;99.90;;;;;;4964326;29;19906;-78
2022/02/17 08:16:27;;;;;;;;;;;6.40;99.90;;;;;;4963907;29;19910;-78
2022/02/17 08:18:53;;;;;;;;;;;6.40;99.90;;;;;;4947035;29;19906;-79
2022/02/17 08:21:18;;;;;;;;;;;6.40;99.90;;;;;;4962711;29;19910;-78
2022/02/17 08:23:44;;;;;;;;;;;6.40;99.90;;;;;;4946053;29;19918;-78
2022/02/17 08:26:09;;;;;;;;;;;6.60;99.90;;;;;;4946680;29;19907;-80
2022/02/17 08:28:35;;;;;;;;;;;6.50;99.90;;;;;;4963941;29;20411;-79
2022/02/17 08:31:00;;;;;;;;;;;6.60;99.90;;;;;;4947959;29;19920;-79
2022/02/17 08:33:26;;;;;;;;;;;6.70;99.90;;;;;;4948108;29;19906;-79
2022/02/17 08:35:51;;;;;;;;;;;6.80;99.90;;;;;;4947487;29;19911;-79
2022/02/17 08:38:17;;;;;;;;;;;6.80;99.90;;;;;;4964628;29;19914;-79
2022/02/17 08:40:43;;;;;;;;;;;6.90;99.90;;;;;;4964553;29;19934;-78
2022/02/17 08:43:08;;;;;;;;;;;7.10;99.90;;;;;;4947652;29;19949;-79
2022/02/17 08:45:35;;;;;;;;;;;7.30;99.90;;;;;;4946884;29;19962;-79
2022/02/17 08:48:01;;;;;;;;;;;7.50;99.90;;;;;;4967959;29;19915;-79
2022/02/17 08:50:26;;;;;;;;;;;7.60;99.90;;;;;;4973931;29;19912;-78
2022/02/17 08:52:52;;;;;;;;;;;7.70;99.90;;;;;;4969251;29;19914;-78
2022/02/17 08:55:17;;;;;;;;;;;8.00;99.90;;;;;;4965226;29;19914;-78
2022/02/17 08:57:47;;;;;;;;;;;8.10;99.90;;;;;;4964419;29;19910;-79
2022/02/17 09:00:14;;;;;;;;;;;8.20;99.90;;;;;;4965547;28;19906;-79
2022/02/17 09:02:40;;;;;;;;;;;8.40;99.90;;;;;;4947461;29;20290;-79
2022/02/17 09:05:06;;;;;;;;;;;8.50;99.90;;;;;;4965098;29;19914;-79
2022/02/17 09:07:31;;;;;;;;;;;8.60;99.90;;;;;;4964376;29;19914;-79
2022/02/17 09:09:57;;;;;;;;;;;8.60;99.90;;;;;;4964144;29;19911;-79
2022/02/17 09:12:22;;;;;;;;;;;8.70;99.90;;;;;;4947155;29;19910;-79
2022/02/17 09:14:48;;;;;;;;;;;8.80;99.90;;;;;;4964927;28;20413;-79
2022/02/17 09:17:14;;;;;;;;;;;9.10;99.90;;;;;;4947367;29;20458;-79
2022/02/17 09:19:39;;;;;;;;;;;9.50;99.90;;;;;;4967440;29;19911;-79
2022/02/17 09:22:05;;;;;;;;;;;10.20;99.90;;;;;;4950745;29;19910;-78
2022/02/17 09:24:31;;;;;;;;;;;10.70;99.90;;;;;;4969024;29;19975;-79
2022/02/17 09:26:56;;;;;;;;;;;11.10;99.90;;;;;;4967876;29;19918;-78
2022/02/17 09:29:22;;;;;;;;;;;11.20;99.90;;;;;;4951571;29;20343;-80
2022/02/17 09:31:47;;;;;;;;;;;11.30;99.90;;;;;;4953696;29;19910;-79
2022/02/17 09:34:13;;;;;;;;;;;11.80;99.90;;;;;;4970799;29;19906;-79
2022/02/17 09:36:38;;;;;;;;;;;11.90;99.90;;;;;;4953923;29;19907;-79
2022/02/17 09:39:04;;;;;;;;;;;11.80;99.90;;;;;;4969452;29;20001;-79
2022/02/17 09:41:30;;;;;;;;;;;11.80;99.90;;;;;;4951470;29;20367;-78
2022/02/17 09:44:01;;;;;;;;;;;11.60;99.90;;;;;;4968909;29;19907;-79
2022/02/17 09:46:27;;;;;;;;;;;11.50;99.90;;;;;;4953057;29;19922;-79
2022/02/17 09:49:00;;;;;;;;;;;11.80;99.90;;;;;;4973196;29;19934;-79
2022/02/17 09:51:27;;;;;;;;;;;12.60;99.90;;;;;;4937335;29;19911;-86
2022/02/17 09:53:52;;;;;;;;;;;13.70;99.90;;;;;;4951649;29;19910;-86
2022/02/17 09:56:19;;;;;;;;;;;14.50;99.90;;;;;;4951653;29;19965;-84
2022/02/17 09:58:44;;;;;;;;;;;14.50;99.90;;;;;;4934582;29;19913;-82
2022/02/17 10:01:26;;;;;;;;;;;14.20;99.90;;;;;;4939450;29;19906;-79
2022/02/17 10:04:12;;;;;;;;;;;13.60;99.90;;;;;;4969868;29;19929;-79
2022/02/17 10:06:57;;;;;;;;;;;13.00;99.90;;;;;;4971764;29;19910;-79
2022/02/17 10:09:24;;;;;;;;;;;12.60;99.90;;;;;;4973901;29;19941;-79
2022/02/17 10:11:51;;;;;;;;;;;12.20;99.90;;;;;;4958558;29;19907;-79
2022/02/17 10:14:18;;;;;;;;;;;12.10;99.90;;;;;;4956963;29;19913;-79
2022/02/17 10:17:00;;;;;;;;;;;12.10;99.90;;;;;;4958203;29;19997;-79
2022/02/17 10:19:27;;;;;;;;;;;11.90;99.90;;;;;;4972870;29;19906;-78
2022/02/17 10:22:01;;;;;;;;;;;11.80;99.90;;;;;;4971844;29;19906;-79
2022/02/17 10:24:30;;;;;;;;;;;11.60;99.90;;;;;;4971080;29;19918;-79
2022/02/17 10:27:04;;;;;;;;;;;11.40;99.90;;;;;;4953177;29;19913;-79
2022/02/17 10:29:30;;;;;;;;;;;11.40;99.90;;;;;;4969288;29;19914;-79
2022/02/17 10:32:16;;;;;;;;;;;11.30;99.90;;;;;;4951534;29;19934;-79
2022/02/17 10:34:42;;;;;;;;;;;11.20;99.90;;;;;;4968289;29;19917;-80
2022/02/17 10:37:10;;;;;;;;;;;11.10;99.90;;;;;;4966861;29;19906;-79
2022/02/17 10:39:38;;;;;;;;;;;11.10;99.90;;;;;;4949381;29;19906;-79
2022/02/17 10:42:03;;;;;;;;;;;11.10;99.90;;;;;;4965688;29;19913;-79
2022/02/17 10:44:33;;;;;;;;;;;11.10;99.90;;;;;;4966676;29;20322;-79
2022/02/17 10:47:09;;;;;;;;;;;11.20;99.90;;;;;;4948877;29;19937;-78
2022/02/17 10:49:39;;;;;;;;;;;11.20;99.90;;;;;;4949656;29;19914;-78
2022/02/17 10:52:05;;;;;;;;;;;11.20;99.90;;;;;;4948426;29;19911;-79
2022/02/17 10:54:30;;;;;;;;;;;11.20;99.90;;;;;;4946929;29;20351;-79
2022/02/17 10:57:01;;;;;;;;;;;11.20;99.90;;;;;;4966578;29;20411;-79
2022/02/17 11:02:17;;;;;;;;;;;11.20;99.90;;;;;;4964875;29;19917;-79
2022/02/17 11:04:43;;;;;;;;;;;11.40;99.90;;;;;;4966611;29;19973;-79
2022/02/17 11:07:09;;;;;;;;;;;11.60;99.90;;;;;;4950893;29;20379;-78
2022/02/17 11:09:35;;;;;;;;;;;11.90;99.90;;;;;;4950483;29;19918;-77
2022/02/17 11:12:01;;;;;;;;;;;12.20;99.90;;;;;;4968864;29;19906;-79
2022/02/17 11:14:36;;;;;;;;;;;12.50;99.90;;;;;;4952115;29;19906;-79
2022/02/17 11:17:02;;;;;;;;;;;12.80;99.90;;;;;;4950327;29;19989;-79
2022/02/17 11:19:28;;;;;;;;;;;13.20;99.90;;;;;;4968572;29;19907;-79
2022/02/17 11:21:53;;;;;;;;;;;13.30;99.90;;;;;;4952590;29;20356;-78
2022/02/17 11:24:19;;;;;;;;;;;13.50;99.90;;;;;;4950458;29;20284;-79
2022/02/17 11:26:44;;;;;;;;;;;13.40;99.90;;;;;;4951091;29;19906;-79
2022/02/17 11:29:22;;;;;;;;;;;13.20;99.90;;;;;;4955758;29;19962;-78
2022/02/17 11:31:55;;;;;;;;;;;13.00;99.90;;;;;;4952490;29;19910;-79
2022/02/17 11:34:34;;;;;;;;;;;12.90;99.90;;;;;;4950993;29;20003;-79
2022/02/17 11:36:59;;;;;;;;;;;12.90;99.90;;;;;;4952253;28;19902;-79
2022/02/17 11:39:45;;;;;;;;;;;13.00;99.90;;;;;;4952904;29;19911;-79
2022/02/17 11:42:10;;;;;;;;;;;12.80;99.90;;;;;;4968918;29;19941;-80
2022/02/17 11:44:36;;;;;;;;;;;12.60;99.90;;;;;;4970285;29;20406;-78
2022/02/17 11:47:05;;;;;;;;;;;12.40;99.90;;;;;;4968103;29;19970;-79
2022/02/17 11:49:30;;;;;;;;;;;12.10;99.90;;;;;;4967217;29;19929;-79
2022/02/17 11:52:15;;;;;;;;;;;11.90;99.90;;;;;;4948566;29;19910;-78
2022/02/17 11:54:41;;;;;;;;;;;11.70;99.90;;;;;;4959582;29;19933;-78
2022/02/17 11:57:26;;;;;;;;;;;11.40;99.90;;;;;;4958854;29;19936;-78
2022/02/17 12:00:12;;;;;;;;;;;11.30;99.90;;;;;;4959997;28;19938;-78
2022/02/17 12:02:41;;;;;;;;;;;11.20;99.90;;;;;;4960740;29;19918;-78
2022/02/17 12:05:14;;;;;;;;;;;11.10;99.90;;;;;;4961672;29;20064;-78
2022/02/17 12:07:41;;;;;;;;;;;11.10;99.90;;;;;;4944240;29;19921;-79
2022/02/17 12:10:25;;;;;;;;;;;11.20;99.90;;;;;;4962004;29;19910;-78
2022/02/17 12:12:50;;;;;;;;;;;11.30;99.90;;;;;;4945065;29;19945;-78
2022/02/17 12:15:17;;;;;;;;;;;11.30;99.90;;;;;;4943167;29;20351;-78
2022/02/17 12:17:43;;;;;;;;;;;11.20;99.90;;;;;;4961832;29;19910;-78
2022/02/17 12:20:18;;;;;;;;;;;11.20;99.90;;;;;;4962873;29;19922;-80
2022/02/17 12:22:49;;;;;;;;;;;11.30;99.90;;;;;;4948040;29;19918;-80
2022/02/17 12:25:15;;;;;;;;;;;11.30;99.90;;;;;;4964339;29;19907;-78
2022/02/17 12:27:45;;;;;;;;;;;11.40;99.90;;;;;;4945318;29;20399;-78
2022/02/17 12:30:11;;;;;;;;;;;11.40;99.90;;;;;;4963861;29;19907;-79
2022/02/17 12:32:37;;;;;;;;;;;11.30;99.90;;;;;;4946305;29;19970;-78
2022/02/17 12:35:03;;;;;;;;;;;11.30;99.90;;;;;;4948823;29;19950;-79
2022/02/17 12:37:28;;;;;;;;;;;11.30;99.90;;;;;;4964991;29;19945;-80
2022/02/17 12:39:54;;;;;;;;;;;11.40;99.90;;;;;;4951312;29;20025;-80
2022/02/17 12:42:21;;;;;;;;;;;11.50;99.90;;;;;;4969723;29;19906;-79
2022/02/17 12:44:48;;;;;;;;;;;11.60;99.90;;;;;;4968774;29;19898;-80
2022/02/17 12:47:15;;;;;;;;;;;11.70;99.90;;;;;;4967237;29;19912;-79
2022/02/17 12:49:40;;;;;;;;;;;11.80;99.90;;;;;;4967406;28;20001;-80
2022/02/17 12:52:10;;;;;;;;;;;11.80;99.90;;;;;;4968811;29;19913;-79
2022/02/17 12:54:36;;;;;;;;;;;11.90;99.90;;;;;;4951245;29;19914;-78
2022/02/17 12:57:05;;;;;;;;;;;11.90;99.90;;;;;;4951176;29;19934;-77
2022/02/17 12:59:30;;;;;;;;;;;12.00;99.90;;;;;;4969906;28;20055;-79
2022/02/17 13:01:58;;;;;;;;;;;12.20;99.90;;;;;;4968913;29;19910;-79
2022/02/17 13:04:24;;;;;;;;;;;12.30;99.90;;;;;;4953147;29;19978;-79
2022/02/17 13:06:49;;;;;;;;;;;12.30;99.90;;;;;;4952097;29;19914;-78
2022/02/17 13:09:16;;;;;;;;;;;12.20;99.90;;;;;;4968496;29;20029;-78
2022/02/17 13:11:46;;;;;;;;;;;12.20;99.90;;;;;;4967653;29;19906;-78
2022/02/17 13:14:12;;;;;;;;;;;12.00;99.90;;;;;;4960521;29;20372;-79
2022/02/17 13:16:42;;;;;;;;;;;11.90;99.90;;;;;;4941695;29;19972;-78
2022/02/17 13:19:26;;;;;;;;;;;11.80;99.90;;;;;;4958919;29;19922;-78
2022/02/17 13:21:52;;;;;;;;;;;11.80;99.90;;;;;;4960654;29;19906;-78
2022/02/17 13:24:20;;;;;;;;;;;11.60;99.90;;;;;;4942988;29;19978;-78
2022/02/17 13:26:45;;;;;;;;;;;11.60;99.90;;;;;;4962045;29;19954;-77
2022/02/17 13:29:13;;;;;;;;;;;11.50;99.90;;;;;;4959646;29;19918;-78
2022/02/17 13:31:39;;;;;;;;;;;11.50;99.90;;;;;;4959819;29;19934;-77
2022/02/17 13:34:19;;;;;;;;;;;11.50;99.90;;;;;;4961186;29;19906;-77
2022/02/17 13:36:45;;;;;;;;;;;11.50;99.90;;;;;;4960788;29;19907;-78
2022/02/17 13:39:14;;;;;;;;;;;11.70;99.90;;;;;;4960223;29;19918;-78
2022/02/17 13:41:56;;;;;;;;;;;11.70;99.90;;;;;;4962301;29;19907;-78
2022/02/17 13:44:28;;;;;;;;;;;11.80;99.90;;;;;;4963088;29;19906;-77
2022/02/17 13:46:54;;;;;;;;;;;11.90;99.90;;;;;;4945471;29;19910;-79
2022/02/17 13:49:20;;;;;;;;;;;12.00;99.90;;;;;;4963585;29;19918;-78
2022/02/17 13:51:46;;;;;;;;;;;12.10;99.90;;;;;;4963881;29;19906;-78
2022/02/17 13:54:11;;;;;;;;;;;12.20;99.90;;;;;;4949560;29;20294;-79
2022/02/17 13:56:37;;;;;;;;;;;12.30;99.90;;;;;;4950331;29;20045;-78
2022/02/17 13:59:03;;;;;;;;;;;12.30;99.90;;;;;;4968603;28;19993;-79
2022/02/17 14:01:35;;;;;;;;;;;12.30;99.90;;;;;;4969151;28;20001;-79
2022/02/17 14:04:02;;;;;;;;;;;12.30;99.90;;;;;;4949662;29;19913;-79
2022/02/17 14:06:28;;;;;;;;;;;12.10;99.90;;;;;;4957170;29;19917;-79
2022/02/17 14:08:54;;;;;;;;;;;12.10;99.90;;;;;;4975510;29;19915;-78
2022/02/17 14:11:20;;;;;;;;;;;12.00;99.90;;;;;;4970566;29;19907;-79
2022/02/17 14:13:46;;;;;;;;;;;12.00;99.90;;;;;;4969992;29;19907;-79
2022/02/17 14:16:11;;;;;;;;;;;11.90;99.90;;;;;;4970374;29;19957;-79
2022/02/17 14:18:37;;;;;;;;;;;11.90;99.90;;;;;;4952734;29;19950;-80
2022/02/17 14:21:03;;;;;;;;;;;11.90;99.90;;;;;;4970439;29;19891;-79
2022/02/17 14:23:29;;;;;;;;;;;11.90;99.90;;;;;;4952225;29;19918;-78
2022/02/17 14:25:54;;;;;;;;;;;12.00;99.90;;;;;;4952893;29;19907;-79
2022/02/17 14:28:20;;;;;;;;;;;12.00;99.90;;;;;;4953928;29;19972;-79
2022/02/17 14:30:47;;;;;;;;;;;12.10;99.90;;;;;;4971541;29;20350;-79
2022/02/17 14:33:13;;;;;;;;;;;12.20;99.90;;;;;;4955374;29;19930;-79